Terminal Aerodrome Forecast
Issued by NWS Key West, FL

Home | Current Version | Previous Version | Text Only | Print | Product List | Glossary On
Versions: 1 2 3 4 5 6 7 8 9 10 11 12 13 14 15 16 17 18 19 20 21 22 23 24 25
000
FTUS42 KKEY 070853 AAB
TAFEYW
TAF AMD
KEYW 070853Z 0709/0806 VRB03KT P6SM FEW010 BKN019
      TEMPO 0709/0712 -RA BKN013
     FM071500 VRB06KT P6SM SCT025 OVC060=

USA.gov is the U.S. government's official web portal to all federal, state and local government web resources and services.